createdAt,value
2018-11-10T00:00:25.295Z,10.37
2018-11-10T00:00:56.395Z,10.37
2018-11-10T00:01:27.504Z,10.37
2018-11-10T00:01:58.667Z,10.37
2018-11-10T00:02:29.802Z,10.41
2018-11-10T00:03:00.930Z,10.41
2018-11-10T00:03:32.070Z,10.40
2018-11-10T00:04:03.237Z,10.41
2018-11-10T00:04:34.371Z,10.40
2018-11-10T00:05:05.507Z,10.40
2018-11-10T00:05:36.629Z,10.40
2018-11-10T00:06:07.794Z,10.38
2018-11-10T00:06:38.906Z,10.40
2018-11-10T00:07:10.066Z,10.40
2018-11-10T00:07:41.224Z,10.41
2018-11-10T00:08:12.373Z,10.43
2018-11-10T00:08:43.476Z,10.44
2018-11-10T00:09:14.589Z,10.45
2018-11-10T00:09:45.745Z,10.48
2018-11-10T00:10:16.896Z,10.47
2018-11-10T00:10:48.022Z,10.49
2018-11-10T00:11:19.154Z,10.45
2018-11-10T00:11:50.306Z,10.44
2018-11-10T00:12:21.488Z,10.41
2018-11-10T00:12:52.593Z,10.39
2018-11-10T00:13:23.751Z,10.39
2018-11-10T00:13:54.887Z,10.39
2018-11-10T00:14:26.034Z,10.41
2018-11-10T00:14:57.150Z,10.42
2018-11-10T00:15:28.252Z,10.41
2018-11-10T00:15:59.355Z,10.42
2018-11-10T00:16:30.584Z,10.42
2018-11-10T00:17:01.719Z,10.41
2018-11-10T00:17:32.848Z,10.43
2018-11-10T00:18:03.952Z,10.45
2018-11-10T00:18:35.057Z,10.43
2018-11-10T00:19:06.188Z,10.36
2018-11-10T00:19:37.311Z,10.29
2018-11-10T00:20:08.460Z,10.29
2018-11-10T00:20:39.584Z,10.30
2018-11-10T00:21:10.758Z,10.32
2018-11-10T00:21:41.894Z,10.32
2018-11-10T00:22:13.789Z,10.34
2018-11-10T00:22:44.960Z,10.34
2018-11-10T00:23:16.121Z,10.38
2018-11-10T00:23:47.249Z,10.38
2018-11-10T00:24:18.354Z,10.39
2018-11-10T00:24:49.486Z,10.39
2018-11-10T00:25:20.637Z,10.41
2018-11-10T00:25:51.746Z,10.43
2018-11-10T00:26:22.851Z,10.46
2018-11-10T00:26:53.983Z,10.49
2018-11-10T00:27:25.091Z,10.52
2018-11-10T00:27:56.205Z,10.55
2018-11-10T00:28:27.384Z,10.55
2018-11-10T00:28:58.508Z,10.57
2018-11-10T00:29:29.637Z,10.58
2018-11-10T00:30:00.801Z,10.57
2018-11-10T00:30:31.918Z,10.57
2018-11-10T00:31:03.055Z,10.57
2018-11-10T00:31:34.179Z,10.55
2018-11-10T00:32:05.304Z,10.54
2018-11-10T00:32:36.419Z,10.50
2018-11-10T00:33:07.543Z,10.48
2018-11-10T00:33:38.711Z,10.46
2018-11-10T00:34:09.834Z,10.47
2018-11-10T00:34:40.989Z,10.47
2018-11-10T00:35:12.154Z,10.47
2018-11-10T00:35:43.288Z,10.48
2018-11-10T00:36:14.403Z,10.46
2018-11-10T00:36:45.531Z,10.46
2018-11-10T00:37:16.670Z,10.45
2018-11-10T00:37:47.793Z,10.43
2018-11-10T00:38:18.914Z,10.44
2018-11-10T00:38:50.117Z,10.44
2018-11-10T00:39:21.231Z,10.43
2018-11-10T00:39:52.367Z,10.42
2018-11-10T00:40:23.482Z,10.41
2018-11-10T00:40:54.633Z,10.42
2018-11-10T00:41:25.797Z,10.43
2018-11-10T00:41:57.019Z,10.46
2018-11-10T00:42:28.181Z,10.46
2018-11-10T00:42:59.346Z,10.46
2018-11-10T00:43:30.456Z,10.43
2018-11-10T00:44:01.638Z,10.43
2018-11-10T00:44:32.748Z,10.44
2018-11-10T00:45:03.850Z,10.45
2018-11-10T00:45:35.005Z,10.44
2018-11-10T00:46:06.130Z,10.43
2018-11-10T00:46:37.231Z,10.43
2018-11-10T00:47:08.378Z,10.42
2018-11-10T00:47:39.498Z,10.42
2018-11-10T00:48:10.611Z,10.40
2018-11-10T00:48:41.716Z,10.40
2018-11-10T00:49:12.836Z,10.40
2018-11-10T00:49:43.953Z,10.41
2018-11-10T00:50:15.130Z,10.42
2018-11-10T00:50:46.239Z,10.38
2018-11-10T00:51:17.392Z,10.36
2018-11-10T00:51:48.493Z,10.35
2018-11-10T00:52:19.607Z,10.33
2018-11-10T00:52:50.756Z,10.32
2018-11-10T00:53:21.863Z,10.32
2018-11-10T00:53:52.998Z,10.28
2018-11-10T00:54:24.127Z,10.27
2018-11-10T00:54:55.274Z,10.26
2018-11-10T00:55:26.449Z,10.25
2018-11-10T00:55:57.600Z,10.25
2018-11-10T00:56:28.795Z,10.25
2018-11-10T00:56:59.921Z,10.22
2018-11-10T00:57:31.076Z,10.19
2018-11-10T00:58:02.234Z,10.19
2018-11-10T00:58:33.369Z,10.18
2018-11-10T00:59:04.478Z,10.19
2018-11-10T00:59:35.595Z,10.20
2018-11-10T01:00:06.732Z,10.22
2018-11-10T01:00:37.910Z,10.25
2018-11-10T01:01:09.023Z,10.23
2018-11-10T01:01:40.184Z,10.22
2018-11-10T01:02:11.299Z,10.20
2018-11-10T01:02:42.409Z,10.19
2018-11-10T01:03:13.545Z,10.17
2018-11-10T01:03:44.675Z,10.17
2018-11-10T01:04:15.854Z,10.16
2018-11-10T01:04:47.014Z,10.15
2018-11-10T01:05:18.159Z,10.12
2018-11-10T01:05:49.319Z,10.12
2018-11-10T01:06:20.424Z,10.09
2018-11-10T01:06:51.556Z,10.11
2018-11-10T01:07:22.681Z,10.12
2018-11-10T01:07:53.806Z,10.13
2018-11-10T01:08:24.918Z,10.09
2018-11-10T01:08:56.068Z,10.09
2018-11-10T01:09:27.197Z,10.11
2018-11-10T01:09:58.306Z,10.10
2018-11-10T01:10:29.424Z,10.09
2018-11-10T01:11:00.554Z,10.06
2018-11-10T01:11:31.667Z,10.05
2018-11-10T01:12:02.777Z,10.04
2018-11-10T01:12:34.066Z,10.06
2018-11-10T01:13:05.192Z,10.05
2018-11-10T01:13:36.394Z,10.06
2018-11-10T01:14:09.396Z,10.06
2018-11-10T01:14:40.527Z,10.07
2018-11-10T01:15:11.634Z,10.09
2018-11-10T01:15:42.852Z,10.10
2018-11-10T01:16:13.995Z,8.99
2018-11-10T01:16:45.157Z,10.08
2018-11-10T01:17:16.321Z,10.07
2018-11-10T01:17:47.463Z,10.06
2018-11-10T01:18:18.606Z,10.03
2018-11-10T01:18:49.715Z,10.02
2018-11-10T01:19:20.856Z,9.98
2018-11-10T01:19:51.973Z,9.97
2018-11-10T01:20:23.099Z,9.96
2018-11-10T01:20:54.230Z,9.96
2018-11-10T01:21:25.362Z,9.97
2018-11-10T01:21:56.499Z,9.98
2018-11-10T01:22:27.645Z,9.97
2018-11-10T01:22:58.755Z,9.97
2018-11-10T01:23:29.887Z,9.97
2018-11-10T01:24:01.963Z,9.98
2018-11-10T01:24:33.098Z,9.98
2018-11-10T01:25:04.227Z,9.96
2018-11-10T01:25:35.338Z,9.93
2018-11-10T01:26:06.460Z,9.91
2018-11-10T01:26:37.564Z,9.89
2018-11-10T01:27:08.775Z,9.87
2018-11-10T01:27:39.907Z,9.87
2018-11-10T01:28:11.067Z,9.87
2018-11-10T01:28:42.240Z,9.87
2018-11-10T01:29:13.389Z,9.87
2018-11-10T01:29:44.482Z,9.88
2018-11-10T01:30:15.596Z,9.90
2018-11-10T01:30:46.724Z,9.91
2018-11-10T01:31:17.905Z,9.93
2018-11-10T01:31:49.037Z,9.91
2018-11-10T01:32:20.175Z,9.90
2018-11-10T01:32:51.322Z,9.87
2018-11-10T01:33:22.436Z,9.87
2018-11-10T01:33:53.534Z,9.87
2018-11-10T01:34:24.683Z,9.87
2018-11-10T01:34:55.786Z,9.87
2018-11-10T01:35:26.894Z,9.89
2018-11-10T01:35:58.038Z,9.89
2018-11-10T01:36:29.167Z,9.89
2018-11-10T01:37:00.272Z,9.89
2018-11-10T01:37:31.383Z,9.90
2018-11-10T01:38:02.574Z,9.88
2018-11-10T01:38:33.699Z,9.87
2018-11-10T01:39:04.833Z,9.86
2018-11-10T01:39:35.941Z,9.86
2018-11-10T01:40:07.074Z,9.84
2018-11-10T01:40:38.199Z,9.85
2018-11-10T01:41:09.355Z,9.86
2018-11-10T01:41:40.495Z,9.86
2018-11-10T01:42:11.611Z,9.87
2018-11-10T01:42:42.733Z,9.85
2018-11-10T01:43:13.885Z,9.84
2018-11-10T01:43:44.992Z,9.84
2018-11-10T01:44:16.124Z,9.83
2018-11-10T01:44:47.241Z,9.81
2018-11-10T01:45:18.345Z,9.81
2018-11-10T01:45:49.450Z,9.79
2018-11-10T01:46:20.561Z,9.80
2018-11-10T01:46:51.705Z,9.81
2018-11-10T01:47:22.848Z,9.80
2018-11-10T01:47:54.049Z,9.79
2018-11-10T01:48:25.220Z,9.82
2018-11-10T01:48:56.331Z,9.82
2018-11-10T01:49:27.446Z,9.81
2018-11-10T01:49:58.584Z,9.81
2018-11-10T01:50:29.692Z,9.80
2018-11-10T01:51:00.822Z,9.78
2018-11-10T01:51:31.929Z,9.78
2018-11-10T01:52:03.077Z,9.77
2018-11-10T01:52:34.178Z,9.75
2018-11-10T01:53:05.292Z,9.74
2018-11-10T01:53:36.468Z,9.72
2018-11-10T01:54:07.599Z,9.71
2018-11-10T01:54:38.724Z,9.73
2018-11-10T01:55:09.892Z,9.71
2018-11-10T01:55:41.437Z,9.70
2018-11-10T01:56:12.629Z,9.68
2018-11-10T01:56:43.764Z,9.65
2018-11-10T01:57:14.901Z,9.64
2018-11-10T01:57:46.130Z,9.64
2018-11-10T01:58:17.234Z,9.64
2018-11-10T01:58:48.363Z,9.66
2018-11-10T01:59:19.501Z,9.65
2018-11-10T01:59:50.614Z,9.64
2018-11-10T02:00:22.506Z,9.63
2018-11-10T02:00:53.622Z,9.62
2018-11-10T02:01:24.733Z,9.63
2018-11-10T02:01:55.841Z,9.65
2018-11-10T02:02:26.977Z,9.66
2018-11-10T02:02:58.088Z,9.69
2018-11-10T02:03:29.215Z,9.68
2018-11-10T02:04:00.350Z,9.69
2018-11-10T02:04:31.678Z,9.70
2018-11-10T02:05:02.779Z,9.69
2018-11-10T02:05:33.963Z,9.69
2018-11-10T02:06:05.120Z,9.63
2018-11-10T02:06:36.347Z,9.59
2018-11-10T02:07:07.505Z,9.58
2018-11-10T02:07:38.614Z,9.57
2018-11-10T02:08:09.763Z,9.57
2018-11-10T02:08:40.919Z,9.57
2018-11-10T02:09:12.032Z,9.57
2018-11-10T02:09:43.210Z,9.57
2018-11-10T02:10:14.303Z,9.55
2018-11-10T02:10:45.486Z,9.54
2018-11-10T02:11:16.604Z,9.53
2018-11-10T02:11:47.735Z,9.53
2018-11-10T02:12:18.844Z,9.52
2018-11-10T02:12:49.956Z,9.49
2018-11-10T02:13:21.072Z,9.49
2018-11-10T02:13:52.202Z,9.50
2018-11-10T02:14:23.338Z,9.48
2018-11-10T02:14:54.480Z,9.44
2018-11-10T02:15:25.674Z,9.40
2018-11-10T02:15:56.838Z,9.36
2018-11-10T02:16:27.952Z,9.35
2018-11-10T02:16:59.094Z,9.35
2018-11-10T02:17:30.286Z,9.32
2018-11-10T02:18:01.399Z,9.31
2018-11-10T02:18:32.551Z,9.32
2018-11-10T02:19:03.659Z,9.33
2018-11-10T02:19:34.791Z,9.32
2018-11-10T02:20:05.908Z,9.31
2018-11-10T02:20:37.055Z,9.31
2018-11-10T02:21:08.182Z,9.31
2018-11-10T02:21:39.304Z,9.32
2018-11-10T02:22:10.412Z,9.29
2018-11-10T02:22:41.574Z,9.28
2018-11-10T02:23:12.726Z,9.29
2018-11-10T02:23:43.880Z,9.30
2018-11-10T02:24:15.017Z,9.31
2018-11-10T02:24:46.155Z,9.33
2018-11-10T02:25:17.355Z,9.33
2018-11-10T02:25:48.519Z,9.33
2018-11-10T02:26:19.765Z,9.32
2018-11-10T02:26:50.885Z,9.32
2018-11-10T02:27:22.039Z,9.32
2018-11-10T02:27:53.179Z,9.32
2018-11-10T02:28:24.284Z,9.34
2018-11-10T02:28:55.442Z,9.33
2018-11-10T02:29:28.290Z,9.33
2018-11-10T02:29:59.408Z,9.33
2018-11-10T02:30:30.565Z,9.34
2018-11-10T02:31:01.672Z,9.33
2018-11-10T02:31:32.839Z,9.33
2018-11-10T02:32:03.941Z,9.33
2018-11-10T02:32:35.056Z,9.34
2018-11-10T02:33:06.188Z,9.34
2018-11-10T02:33:37.416Z,9.31
2018-11-10T02:34:08.525Z,9.31
2018-11-10T02:34:39.659Z,9.32
2018-11-10T02:35:10.810Z,9.30
2018-11-10T02:35:41.939Z,9.30
2018-11-10T02:36:13.056Z,9.30
2018-11-10T02:36:44.216Z,9.21
2018-11-10T02:37:15.347Z,9.21
2018-11-10T02:37:46.477Z,9.23
2018-11-10T02:38:17.611Z,9.24
2018-11-10T02:38:48.859Z,9.26
2018-11-10T02:39:19.919Z,9.26
2018-11-10T02:39:51.051Z,9.27
2018-11-10T02:40:22.190Z,9.29
2018-11-10T02:40:53.300Z,9.31
2018-11-10T02:41:24.425Z,9.30
2018-11-10T02:41:55.563Z,9.32
2018-11-10T02:42:26.677Z,9.32
2018-11-10T02:42:57.788Z,9.31
2018-11-10T02:43:28.897Z,9.32
2018-11-10T02:44:00.026Z,9.33
2018-11-10T02:44:31.910Z,9.35
2018-11-10T02:45:03.052Z,9.36
2018-11-10T02:45:34.176Z,9.35
2018-11-10T02:46:05.272Z,9.36
2018-11-10T02:46:36.404Z,9.37
2018-11-10T02:47:07.559Z,9.36
2018-11-10T02:47:38.719Z,9.35
2018-11-10T02:48:09.897Z,9.34
2018-11-10T02:48:41.035Z,9.33
2018-11-10T02:49:12.152Z,9.33
2018-11-10T02:49:43.284Z,9.32
2018-11-10T02:50:14.390Z,9.33
2018-11-10T02:50:45.543Z,9.29
2018-11-10T02:51:16.656Z,9.26
2018-11-10T02:51:47.809Z,9.25
2018-11-10T02:52:18.994Z,9.24
2018-11-10T02:52:50.184Z,9.23
2018-11-10T02:53:21.299Z,9.26
2018-11-10T02:53:52.428Z,9.28
2018-11-10T02:54:23.609Z,9.31
2018-11-10T02:54:54.751Z,9.32
2018-11-10T02:55:25.950Z,9.33
2018-11-10T02:55:57.101Z,9.33
2018-11-10T02:56:28.234Z,9.34
2018-11-10T02:56:59.390Z,9.33
2018-11-10T02:57:30.546Z,9.33
2018-11-10T02:58:01.684Z,9.35
2018-11-10T02:58:32.831Z,9.35
2018-11-10T02:59:03.954Z,9.36
2018-11-10T02:59:35.088Z,9.35
2018-11-10T03:00:06.243Z,9.35
2018-11-10T03:00:37.436Z,9.35
2018-11-10T03:01:08.573Z,9.33
2018-11-10T03:01:39.743Z,8.30
2018-11-10T03:02:10.916Z,9.33
2018-11-10T03:02:42.050Z,9.34
2018-11-10T03:03:13.180Z,9.33
2018-11-10T03:03:44.326Z,9.34
2018-11-10T03:04:15.433Z,9.34
2018-11-10T03:04:47.187Z,9.34
2018-11-10T03:05:18.310Z,9.32
2018-11-10T03:05:49.442Z,9.29
2018-11-10T03:06:20.603Z,9.27
2018-11-10T03:06:51.781Z,9.28
2018-11-10T03:07:22.923Z,9.28
2018-11-10T03:07:54.046Z,9.29
2018-11-10T03:08:25.174Z,9.28
2018-11-10T03:08:56.297Z,9.27
2018-11-10T03:09:27.409Z,9.28
2018-11-10T03:09:58.549Z,9.27
2018-11-10T03:10:29.706Z,9.28
2018-11-10T03:11:00.819Z,9.30
2018-11-10T03:11:32.000Z,9.31
2018-11-10T03:12:03.133Z,9.30
2018-11-10T03:12:34.241Z,9.30
2018-11-10T03:13:05.420Z,9.28
2018-11-10T03:13:36.536Z,9.28
2018-11-10T03:14:07.662Z,9.28
2018-11-10T03:14:38.818Z,9.26
2018-11-10T03:15:10.013Z,9.25
2018-11-10T03:15:41.138Z,9.23
2018-11-10T03:16:12.291Z,9.23
2018-11-10T03:16:43.404Z,9.23
2018-11-10T03:17:14.526Z,9.21
2018-11-10T03:17:45.659Z,9.20
2018-11-10T03:18:16.770Z,9.17
2018-11-10T03:18:47.889Z,9.15
2018-11-10T03:19:19.055Z,9.13
2018-11-10T03:19:50.173Z,9.13
2018-11-10T03:20:21.342Z,9.11
2018-11-10T03:20:52.467Z,9.12
2018-11-10T03:21:23.595Z,9.11
2018-11-10T03:21:54.750Z,9.13
2018-11-10T03:22:25.927Z,9.12
2018-11-10T03:22:57.078Z,8.95
2018-11-10T03:23:28.200Z,9.12
2018-11-10T03:23:59.322Z,9.11
2018-11-10T03:24:30.465Z,9.10
2018-11-10T03:25:01.589Z,9.09
2018-11-10T03:25:32.766Z,9.07
2018-11-10T03:26:03.878Z,9.06
2018-11-10T03:26:34.998Z,9.07
2018-11-10T03:27:06.134Z,9.06
2018-11-10T03:27:37.315Z,9.05
2018-11-10T03:28:08.426Z,9.03
2018-11-10T03:28:39.568Z,9.01
2018-11-10T03:29:10.705Z,9.01
2018-11-10T03:29:41.879Z,8.99
2018-11-10T03:30:13.027Z,8.95
2018-11-10T03:30:44.164Z,8.94
2018-11-10T03:31:15.294Z,8.93
2018-11-10T03:31:46.407Z,8.94
2018-11-10T03:32:17.548Z,8.96
2018-11-10T03:32:48.657Z,8.97
2018-11-10T03:33:19.798Z,8.97
2018-11-10T03:33:50.897Z,8.97
2018-11-10T03:34:22.025Z,8.97
2018-11-10T03:34:53.162Z,8.98
2018-11-10T03:35:24.294Z,8.97
2018-11-10T03:35:55.408Z,8.99
2018-11-10T03:36:26.531Z,8.98
2018-11-10T03:36:57.689Z,8.97
2018-11-10T03:37:28.804Z,8.80
2018-11-10T03:37:59.912Z,8.95
2018-11-10T03:38:31.073Z,8.97
2018-11-10T03:39:02.224Z,8.94
2018-11-10T03:39:33.331Z,8.92
2018-11-10T03:40:04.498Z,8.91
2018-11-10T03:40:35.664Z,8.90
2018-11-10T03:41:06.793Z,8.89
2018-11-10T03:41:37.941Z,8.91
2018-11-10T03:42:09.047Z,8.90
2018-11-10T03:42:40.148Z,8.89
2018-11-10T03:43:11.260Z,8.88
2018-11-10T03:43:42.397Z,8.88
2018-11-10T03:44:13.542Z,8.88
2018-11-10T03:44:44.674Z,8.87
2018-11-10T03:45:15.848Z,8.86
2018-11-10T03:45:46.990Z,8.83
2018-11-10T03:46:18.125Z,8.81
2018-11-10T03:46:49.247Z,8.79
2018-11-10T03:47:20.402Z,8.77
2018-11-10T03:47:51.541Z,8.73
2018-11-10T03:48:22.679Z,8.70
2018-11-10T03:48:53.939Z,8.66
2018-11-10T03:49:24.969Z,8.63
2018-11-10T03:49:56.087Z,8.60
2018-11-10T03:50:27.219Z,8.59
2018-11-10T03:50:58.361Z,8.56
2018-11-10T03:51:29.486Z,8.53
2018-11-10T03:52:00.655Z,8.51
2018-11-10T03:52:31.817Z,8.48
2018-11-10T03:53:02.923Z,8.46
2018-11-10T03:53:34.068Z,8.46
2018-11-10T03:54:05.235Z,8.43
2018-11-10T03:54:36.352Z,8.41
2018-11-10T03:55:07.536Z,8.38
2018-11-10T03:55:38.667Z,8.38
2018-11-10T03:56:09.808Z,8.36
2018-11-10T03:56:41.712Z,8.35
2018-11-10T03:57:12.832Z,8.33
2018-11-10T03:57:43.937Z,8.30
2018-11-10T03:58:15.046Z,8.27
2018-11-10T03:58:46.171Z,8.25
2018-11-10T03:59:17.344Z,8.23
2018-11-10T03:59:48.490Z,8.20
2018-11-10T04:00:19.653Z,8.16
2018-11-10T04:00:50.781Z,8.14
2018-11-10T04:01:21.902Z,8.17
2018-11-10T04:01:53.019Z,8.16
2018-11-10T04:02:24.155Z,8.20
2018-11-10T04:02:55.359Z,8.23
2018-11-10T04:03:26.476Z,8.24
2018-11-10T04:03:57.602Z,8.24
2018-11-10T04:04:28.759Z,8.23
2018-11-10T04:04:59.887Z,8.21
2018-11-10T04:05:31.143Z,8.20
2018-11-10T04:06:02.272Z,8.19
2018-11-10T04:06:33.457Z,8.18
2018-11-10T04:07:04.574Z,8.17
2018-11-10T04:07:35.715Z,8.17
2018-11-10T04:08:06.828Z,8.14
2018-11-10T04:08:37.951Z,8.13
2018-11-10T04:09:09.062Z,8.12
2018-11-10T04:09:40.220Z,8.12
2018-11-10T04:10:11.322Z,8.11
2018-11-10T04:10:42.463Z,8.06
2018-11-10T04:11:13.575Z,8.03
2018-11-10T04:11:44.711Z,8.00
2018-11-10T04:12:15.822Z,7.98
2018-11-10T04:12:46.937Z,7.94
2018-11-10T04:13:18.094Z,7.93
2018-11-10T04:13:49.204Z,7.89
2018-11-10T04:14:20.362Z,7.88
2018-11-10T04:14:51.526Z,7.85
2018-11-10T04:15:22.635Z,7.84
2018-11-10T04:15:53.761Z,7.84
2018-11-10T04:16:24.876Z,7.83
2018-11-10T04:16:56.998Z,7.80
2018-11-10T04:17:28.121Z,7.77
2018-11-10T04:17:59.254Z,7.75
2018-11-10T04:18:30.379Z,7.71
2018-11-10T04:19:01.485Z,7.64
2018-11-10T04:19:32.650Z,7.61
2018-11-10T04:20:03.835Z,7.62
2018-11-10T04:20:35.755Z,7.60
2018-11-10T04:21:06.857Z,7.56
2018-11-10T04:21:37.964Z,7.54
2018-11-10T04:22:09.066Z,7.53
2018-11-10T04:22:40.202Z,7.52
2018-11-10T04:23:11.325Z,7.51
2018-11-10T04:23:42.498Z,7.53
2018-11-10T04:24:13.647Z,7.55
2018-11-10T04:24:44.796Z,7.57
2018-11-10T04:25:15.910Z,7.56
2018-11-10T04:25:47.056Z,7.55
2018-11-10T04:26:18.194Z,7.53
2018-11-10T04:26:49.330Z,7.52
2018-11-10T04:27:20.917Z,7.52
2018-11-10T04:27:52.090Z,7.52
2018-11-10T04:28:23.235Z,7.50
2018-11-10T04:28:54.356Z,7.48
2018-11-10T04:29:25.459Z,7.45
2018-11-10T04:29:56.562Z,7.44
2018-11-10T04:30:27.693Z,7.42
2018-11-10T04:30:58.817Z,7.41
2018-11-10T04:31:29.955Z,7.39
2018-11-10T04:32:01.103Z,7.37
2018-11-10T04:32:32.234Z,7.35
2018-11-10T04:33:03.422Z,7.32
2018-11-10T04:33:34.538Z,7.31
2018-11-10T04:34:05.675Z,7.30
2018-11-10T04:34:36.804Z,7.31
2018-11-10T04:35:07.935Z,7.30
2018-11-10T04:35:39.051Z,7.30
2018-11-10T04:36:10.165Z,7.32
2018-11-10T04:36:41.296Z,7.32
2018-11-10T04:37:12.452Z,7.31
2018-11-10T04:37:43.565Z,7.33
2018-11-10T04:38:14.672Z,7.35
2018-11-10T04:38:45.765Z,7.35
2018-11-10T04:39:16.877Z,7.37
2018-11-10T04:39:47.991Z,7.37
2018-11-10T04:40:19.096Z,7.36
2018-11-10T04:40:50.263Z,7.37
2018-11-10T04:41:21.383Z,7.37
2018-11-10T04:41:52.511Z,7.34
2018-11-10T04:42:23.620Z,7.35
2018-11-10T04:42:54.766Z,7.32
2018-11-10T04:43:25.867Z,7.30
2018-11-10T04:43:57.772Z,7.30
2018-11-10T04:44:28.887Z,7.27
2018-11-10T04:44:59.990Z,7.25
2018-11-10T04:45:31.124Z,7.23
2018-11-10T04:46:02.322Z,7.23
2018-11-10T04:46:33.467Z,7.22
2018-11-10T04:47:04.588Z,7.21
2018-11-10T04:47:35.744Z,7.19
2018-11-10T04:48:06.865Z,7.18
2018-11-10T04:48:38.877Z,7.17
2018-11-10T04:49:10.016Z,7.16
2018-11-10T04:49:41.161Z,7.14
2018-11-10T04:50:12.285Z,7.15
2018-11-10T04:50:43.419Z,7.16
2018-11-10T04:51:14.619Z,7.17
2018-11-10T04:51:45.759Z,7.16
2018-11-10T04:52:16.863Z,7.17
2018-11-10T04:52:48.002Z,7.18
2018-11-10T04:53:19.169Z,7.18
2018-11-10T04:53:50.308Z,7.17
2018-11-10T04:54:21.423Z,7.15
2018-11-10T04:54:52.530Z,7.15
2018-11-10T04:55:23.664Z,7.16
2018-11-10T04:55:54.764Z,7.16
2018-11-10T04:56:25.891Z,7.14
2018-11-10T04:56:57.053Z,7.16
2018-11-10T04:57:28.174Z,7.15
2018-11-10T04:57:59.275Z,7.15
2018-11-10T04:58:30.447Z,7.16
2018-11-10T04:59:38.905Z,7.16
2018-11-10T05:00:10.106Z,7.14
2018-11-10T05:00:41.261Z,7.14
2018-11-10T05:01:12.389Z,7.11
2018-11-10T05:01:43.550Z,7.11
2018-11-10T05:02:14.675Z,7.09
2018-11-10T05:02:46.637Z,7.08
2018-11-10T05:03:17.733Z,7.04
2018-11-10T05:03:48.893Z,7.01
2018-11-10T05:04:20.031Z,6.99
2018-11-10T05:04:51.227Z,6.98
2018-11-10T05:05:22.314Z,6.96
2018-11-10T05:05:53.417Z,6.93
2018-11-10T05:06:24.542Z,6.91
2018-11-10T05:06:55.677Z,6.88
2018-11-10T05:07:26.848Z,6.85
2018-11-10T05:07:57.978Z,6.86
2018-11-10T05:08:29.116Z,6.85
2018-11-10T05:09:00.267Z,6.82
2018-11-10T05:09:31.390Z,6.79
2018-11-10T05:10:02.496Z,6.77
2018-11-10T05:10:33.604Z,6.76
2018-11-10T05:11:04.738Z,6.74
2018-11-10T05:11:35.843Z,6.72
2018-11-10T05:12:06.974Z,6.72
2018-11-10T05:12:38.094Z,6.69
2018-11-10T05:13:09.260Z,6.68
2018-11-10T05:13:40.373Z,6.64
2018-11-10T05:14:11.470Z,6.63
2018-11-10T05:14:44.781Z,6.61
2018-11-10T05:15:15.930Z,6.60
2018-11-10T05:15:47.050Z,6.58
2018-11-10T05:16:18.173Z,6.54
2018-11-10T05:16:49.308Z,6.51
2018-11-10T05:17:20.442Z,6.48
2018-11-10T05:17:51.571Z,6.47
2018-11-10T05:18:22.743Z,6.45
2018-11-10T05:18:53.932Z,6.44
2018-11-10T05:19:25.063Z,6.42
2018-11-10T05:19:56.219Z,6.39
2018-11-10T05:20:27.919Z,6.37
2018-11-10T05:20:59.044Z,6.37
2018-11-10T05:21:30.202Z,6.37
2018-11-10T05:22:01.306Z,6.38
2018-11-10T05:22:32.442Z,6.41
2018-11-10T05:23:03.582Z,6.46
2018-11-10T05:23:34.739Z,6.48
2018-11-10T05:24:05.863Z,6.50
2018-11-10T05:24:36.982Z,6.50
2018-11-10T05:25:08.103Z,6.49
2018-11-10T05:25:39.244Z,6.48
2018-11-10T05:26:10.373Z,6.52
2018-11-10T05:26:41.498Z,6.54
2018-11-10T05:27:12.609Z,6.58
2018-11-10T05:27:43.745Z,6.61
2018-11-10T05:28:14.856Z,6.62
2018-11-10T05:28:46.029Z,6.62
2018-11-10T05:29:17.154Z,6.63
2018-11-10T05:29:48.282Z,6.65
2018-11-10T05:30:19.405Z,6.67
2018-11-10T05:30:50.594Z,6.71
2018-11-10T05:31:21.696Z,6.72
2018-11-10T05:31:52.817Z,6.75
2018-11-10T05:32:23.991Z,6.76
2018-11-10T05:32:55.123Z,6.79
2018-11-10T05:33:26.303Z,6.80
2018-11-10T05:33:57.500Z,6.77
2018-11-10T05:34:28.638Z,6.75
2018-11-10T05:34:59.780Z,6.73
2018-11-10T05:35:30.882Z,6.72
2018-11-10T05:36:02.024Z,6.73
2018-11-10T05:36:33.118Z,6.73
2018-11-10T05:37:04.209Z,6.74
2018-11-10T05:37:35.334Z,6.77
2018-11-10T05:38:06.586Z,6.74
2018-11-10T05:38:37.710Z,6.75
2018-11-10T05:39:08.834Z,6.76
2018-11-10T05:39:39.965Z,6.77
2018-11-10T05:40:11.141Z,6.74
2018-11-10T05:40:42.256Z,6.74
2018-11-10T05:41:13.392Z,6.73
2018-11-10T05:41:44.521Z,6.73
2018-11-10T05:42:15.644Z,6.75
2018-11-10T05:42:46.753Z,6.77
2018-11-10T05:43:17.857Z,6.78
2018-11-10T05:43:48.982Z,6.81
2018-11-10T05:44:20.119Z,6.83
2018-11-10T05:44:51.258Z,6.87
2018-11-10T05:45:22.400Z,6.89
2018-11-10T05:45:53.530Z,6.94
2018-11-10T05:46:24.683Z,6.94
2018-11-10T05:46:55.787Z,6.96
2018-11-10T05:47:26.932Z,6.97
2018-11-10T05:47:58.050Z,6.99
2018-11-10T05:48:29.209Z,6.98
2018-11-10T05:49:00.365Z,6.99
2018-11-10T05:49:31.482Z,7.00
2018-11-10T05:50:02.640Z,7.03
2018-11-10T05:50:33.841Z,7.06
2018-11-10T05:51:05.006Z,7.06
2018-11-10T05:51:36.139Z,7.06
2018-11-10T05:52:07.253Z,7.07
2018-11-10T05:52:38.376Z,7.07
2018-11-10T05:53:09.494Z,7.09
2018-11-10T05:53:40.619Z,7.10
2018-11-10T05:54:11.740Z,7.13
2018-11-10T05:54:42.896Z,7.16
2018-11-10T05:55:14.033Z,7.19
2018-11-10T05:55:45.186Z,7.21
2018-11-10T05:56:16.306Z,7.25
2018-11-10T05:56:47.451Z,7.25
2018-11-10T05:57:18.656Z,6.88
2018-11-10T05:57:49.728Z,7.28
2018-11-10T05:58:20.877Z,7.30
2018-11-10T05:58:52.021Z,7.34
2018-11-10T05:59:23.166Z,7.38
2018-11-10T05:59:54.295Z,7.38
2018-11-10T06:00:25.450Z,7.38
2018-11-10T06:00:56.629Z,7.41
2018-11-10T06:01:27.741Z,7.42
2018-11-10T06:01:58.855Z,7.43
2018-11-10T06:02:30.008Z,7.42
2018-11-10T06:03:01.162Z,7.42
2018-11-10T06:03:32.280Z,7.43
2018-11-10T06:04:03.410Z,7.44
2018-11-10T06:04:34.518Z,7.46
2018-11-10T06:05:05.669Z,7.47
2018-11-10T06:05:36.788Z,7.52
2018-11-10T06:06:07.952Z,7.52
2018-11-10T06:06:39.061Z,7.51
2018-11-10T06:07:10.181Z,7.55
2018-11-10T06:07:42.540Z,7.54
2018-11-10T06:08:13.667Z,7.55
2018-11-10T06:08:44.789Z,7.58
2018-11-10T06:09:15.963Z,7.57
2018-11-10T06:09:47.179Z,7.59
2018-11-10T06:10:18.406Z,7.62
2018-11-10T06:10:49.382Z,7.64
2018-11-10T06:11:20.554Z,7.65
2018-11-10T06:11:51.675Z,7.69
2018-11-10T06:12:22.783Z,7.72
2018-11-10T06:12:53.967Z,7.73
2018-11-10T06:13:25.042Z,7.75
2018-11-10T06:13:56.176Z,7.75
2018-11-10T06:14:27.295Z,7.79
2018-11-10T06:14:58.418Z,7.80
2018-11-10T06:15:29.547Z,7.80
2018-11-10T06:16:00.717Z,7.82
2018-11-10T06:16:31.883Z,7.85
2018-11-10T06:17:03.014Z,7.88
2018-11-10T06:17:34.169Z,7.91
2018-11-10T06:18:05.276Z,7.95
2018-11-10T06:18:36.455Z,8.00
2018-11-10T06:19:07.589Z,8.01
2018-11-10T06:19:38.694Z,8.04
2018-11-10T06:20:09.849Z,8.08
2018-11-10T06:20:40.964Z,8.11
2018-11-10T06:21:12.088Z,8.17
2018-11-10T06:21:43.279Z,8.20
2018-11-10T06:22:14.392Z,8.25
2018-11-10T06:22:45.519Z,8.32
2018-11-10T06:23:16.647Z,8.40
2018-11-10T06:23:47.781Z,8.47
2018-11-10T06:24:18.886Z,8.53
2018-11-10T06:24:50.022Z,8.60
2018-11-10T06:25:21.177Z,8.60
2018-11-10T06:25:52.338Z,8.64
2018-11-10T06:26:23.485Z,8.67
2018-11-10T06:26:54.660Z,8.72
2018-11-10T06:27:25.818Z,8.75
2018-11-10T06:27:56.925Z,8.78
2018-11-10T06:28:28.036Z,8.80
2018-11-10T06:28:59.136Z,8.85
2018-11-10T06:29:30.268Z,8.92
2018-11-10T06:30:01.399Z,8.98
2018-11-10T06:30:32.553Z,9.03
2018-11-10T06:31:03.679Z,9.11
2018-11-10T06:31:34.788Z,9.14
2018-11-10T06:32:05.934Z,9.15
2018-11-10T06:32:37.147Z,9.14
2018-11-10T06:33:08.242Z,9.11
2018-11-10T06:33:39.356Z,9.09
2018-11-10T06:34:11.199Z,9.12
2018-11-10T06:34:42.362Z,9.17
2018-11-10T06:35:13.490Z,9.27
2018-11-10T06:35:44.616Z,9.35
2018-11-10T06:36:15.880Z,9.25
2018-11-10T06:36:46.992Z,9.44
2018-11-10T06:37:18.139Z,9.57
2018-11-10T06:37:49.305Z,9.61
2018-11-10T06:38:20.426Z,9.70
2018-11-10T06:38:51.576Z,9.77
2018-11-10T06:39:22.694Z,9.83
2018-11-10T06:39:53.832Z,9.85
2018-11-10T06:40:24.930Z,9.90
2018-11-10T06:40:56.045Z,9.97
2018-11-10T06:41:27.182Z,10.04
2018-11-10T06:41:58.342Z,10.06
2018-11-10T06:42:29.513Z,10.05
2018-11-10T06:43:00.667Z,10.05
2018-11-10T06:43:31.781Z,10.05
2018-11-10T06:44:02.923Z,9.99
2018-11-10T06:44:34.049Z,9.98
2018-11-10T06:45:05.180Z,9.99
2018-11-10T06:45:36.287Z,9.98
2018-11-10T06:46:07.419Z,9.98
2018-11-10T06:46:38.537Z,9.99
2018-11-10T06:47:09.704Z,9.98
2018-11-10T06:47:40.821Z,9.94
2018-11-10T06:48:11.992Z,9.87
2018-11-10T06:48:43.196Z,9.86
2018-11-10T06:49:14.353Z,9.82
2018-11-10T06:49:45.479Z,9.83
2018-11-10T06:50:16.609Z,9.81
2018-11-10T06:50:47.759Z,9.80
2018-11-10T06:51:18.896Z,9.76
2018-11-10T06:51:50.029Z,9.75
2018-11-10T06:52:21.186Z,9.75
2018-11-10T06:52:52.359Z,9.74